Time;durP1;ratioP1;P1;durP2;ratioP2;P2;SDS_P1;SDS_P2;PMS_P1;PMS_P2;Temp;Humidity;BMP_temperature;BMP_pressure;BME280_temperature;BME280_humidity;BME280_pressure;Samples;Min_cycle;Max_cycle;Signal;HPM_P1;HPM_P2
2022/01/14 00:03:29;;;;;;;3.33;2.20;;;17.50;65.20;;;;;;10514136;28;20823;-69
2022/01/14 00:08:54;;;;;;;3.10;2.40;;;17.50;64.70;;;;;;10508085;28;20647;-70
2022/01/14 00:14:36;;;;;;;3.70;2.50;;;17.50;64.60;;;;;;10533900;28;20258;-68
2022/01/14 00:19:58;;;;;;;3.40;2.27;;;17.50;64.50;;;;;;10533702;28;20528;-69
2022/01/14 00:36:43;;;;;;;3.70;2.70;;;17.50;64.50;;;;;;10516226;28;20204;-68
2022/01/14 00:42:08;;;;;;;3.20;2.03;;;17.50;64.50;;;;;;10532302;28;20303;-68
2022/01/14 00:47:33;;;;;;;3.53;2.20;;;17.50;64.50;;;;;;10532979;28;20805;-68
2022/01/14 00:52:55;;;;;;;3.03;2.20;;;17.50;64.50;;;;;;10541502;28;20278;-68
2022/01/14 01:03:58;;;;;;;2.80;2.27;;;17.50;64.40;;;;;;10539848;28;20269;-68
2022/01/14 01:09:23;;;;;;;2.30;1.90;;;17.50;64.40;;;;;;10540788;28;20219;-68
2022/01/14 01:14:52;;;;;;;4.27;2.40;;;17.50;64.40;;;;;;10541222;28;20272;-68
2022/01/14 01:20:18;;;;;;;4.03;2.13;;;17.50;64.40;;;;;;10541258;28;20180;-68
2022/01/14 01:25:44;;;;;;;2.67;1.93;;;17.50;64.40;;;;;;10512250;28;20265;-67
2022/01/14 01:31:35;;;;;;;3.30;1.93;;;17.50;64.40;;;;;;10539351;28;20206;-68
2022/01/14 01:36:52;;;;;;;3.23;2.03;;;17.50;64.40;;;;;;10539037;28;20195;-68
2022/01/14 01:42:16;;;;;;;2.63;1.73;;;17.50;64.40;;;;;;10538992;28;20211;-69
2022/01/14 01:47:41;;;;;;;2.23;1.67;;;17.50;64.40;;;;;;10538603;28;20204;-68
2022/01/14 01:53:04;;;;;;;2.37;1.90;;;17.40;64.40;;;;;;10538196;28;20206;-68
2022/01/14 01:58:27;;;;;;;1.93;1.70;;;17.50;64.40;;;;;;10538381;28;20249;-70
2022/01/14 02:03:50;;;;;;;3.03;1.70;;;17.40;64.40;;;;;;10537586;28;20220;-70
2022/01/14 02:09:13;;;;;;;2.93;2.00;;;17.40;64.30;;;;;;10537745;28;21603;-68
2022/01/14 02:14:54;;;;;;;2.80;1.63;;;17.50;64.40;;;;;;10537664;28;20290;-68
2022/01/14 02:25:57;;;;;;;2.10;1.57;;;17.40;64.40;;;;;;10537612;28;20827;-66
2022/01/14 02:31:19;;;;;;;3.17;2.10;;;17.40;64.40;;;;;;10538050;28;20203;-68
2022/01/14 02:36:45;;;;;;;2.90;1.63;;;17.40;64.40;;;;;;10537139;28;20212;-68
2022/01/14 02:42:09;;;;;;;2.37;1.67;;;17.40;64.40;;;;;;10535166;28;20200;-69
2022/01/14 02:47:31;;;;;;;3.27;1.93;;;17.40;64.30;;;;;;10535908;28;20297;-68
2022/01/14 02:52:58;;;;;;;3.43;1.80;;;17.40;64.40;;;;;;10537663;28;20192;-68
2022/01/14 02:58:21;;;;;;;1.90;1.60;;;17.40;64.40;;;;;;10536116;28;20200;-68
2022/01/14 03:03:45;;;;;;;2.67;1.70;;;17.40;64.40;;;;;;10494220;28;20216;-68
2022/01/14 03:09:09;;;;;;;3.10;1.30;;;17.40;64.40;;;;;;10493641;28;20196;-68
2022/01/14 03:14:31;;;;;;;2.80;1.30;;;17.40;64.40;;;;;;10518187;28;20212;-68
2022/01/14 03:19:53;;;;;;;3.30;1.73;;;17.40;64.40;;;;;;10535719;28;20195;-67
2022/01/14 03:30:56;;;;;;;3.33;1.60;;;17.40;64.30;;;;;;10534491;28;20206;-68
2022/01/14 03:36:19;;;;;;;2.40;1.60;;;17.40;64.40;;;;;;10536253;28;20234;-69
2022/01/14 03:41:42;;;;;;;2.93;1.73;;;17.40;64.40;;;;;;10536380;28;20214;-68
2022/01/14 03:47:05;;;;;;;2.87;1.40;;;17.40;64.40;;;;;;10534627;28;20246;-68
2022/01/14 03:52:27;;;;;;;2.63;1.53;;;17.40;64.40;;;;;;10534905;28;20586;-68
2022/01/14 03:57:51;;;;;;;2.03;1.43;;;17.40;64.30;;;;;;10477232;22;20232;-65
2022/01/14 04:03:13;;;;;;;2.33;1.23;;;17.40;64.30;;;;;;10451248;28;20217;-66
2022/01/14 04:08:35;;;;;;;2.87;1.47;;;17.40;64.30;;;;;;10408858;28;20202;-65
2022/01/14 04:14:08;;;;;;;2.23;1.27;;;17.40;64.30;;;;;;10408434;28;20214;-65
2022/01/14 04:19:30;;;;;;;5.27;1.90;;;17.40;64.30;;;;;;10401799;28;20193;-66
2022/01/14 04:24:53;;;;;;;1.57;1.33;;;17.40;64.40;;;;;;10403737;28;20214;-65
2022/01/14 04:30:16;;;;;;;3.03;1.43;;;17.40;64.40;;;;;;10398143;28;20205;-65
2022/01/14 04:35:39;;;;;;;1.93;1.23;;;17.40;64.30;;;;;;10417875;28;20265;-65
2022/01/14 04:41:01;;;;;;;1.60;1.30;;;17.40;64.40;;;;;;10416301;28;20669;-65
2022/01/14 04:52:01;;;;;;;3.10;1.57;;;17.40;64.40;;;;;;10388335;28;20229;-66
2022/01/14 04:57:24;;;;;;;1.80;1.13;;;17.50;64.40;;;;;;10409729;28;20242;-66
2022/01/14 05:02:48;;;;;;;1.93;1.30;;;17.50;64.30;;;;;;10411268;28;20224;-66
2022/01/14 05:08:15;;;;;;;1.50;1.30;;;17.50;64.30;;;;;;10411317;28;20231;-66
2022/01/14 05:13:37;;;;;;;2.70;1.23;;;17.50;64.30;;;;;;10409887;28;20264;-66
2022/01/14 05:19:00;;;;;;;2.97;1.53;;;17.50;64.40;;;;;;10410930;28;20221;-66
2022/01/14 05:24:24;;;;;;;2.63;1.40;;;17.50;64.30;;;;;;10411243;28;20217;-66
2022/01/14 05:29:46;;;;;;;2.67;1.40;;;17.50;64.30;;;;;;10409924;28;20240;-65
2022/01/14 05:35:10;;;;;;;1.50;1.10;;;17.50;64.30;;;;;;10409998;28;20711;-66
2022/01/14 05:40:32;;;;;;;1.83;1.13;;;17.50;64.30;;;;;;10408283;28;20624;-66
2022/01/14 05:45:54;;;;;;;2.37;1.20;;;17.50;64.40;;;;;;10410681;28;20218;-65
2022/01/14 05:51:18;;;;;;;2.60;1.17;;;17.50;64.50;;;;;;10373368;28;20191;-66
2022/01/14 05:56:40;;;;;;;1.50;1.20;;;17.50;64.40;;;;;;10374333;28;20227;-65
2022/01/14 06:02:03;;;;;;;1.50;1.23;;;17.50;64.30;;;;;;10389862;28;20295;-65
2022/01/14 06:07:26;;;;;;;1.87;1.17;;;17.50;64.30;;;;;;10413790;28;20221;-65
2022/01/14 06:12:48;;;;;;;1.90;1.20;;;17.50;64.30;;;;;;10399509;28;20585;-66
2022/01/14 06:18:10;;;;;;;2.60;1.40;;;17.50;64.30;;;;;;10413673;28;20225;-66
2022/01/14 06:23:34;;;;;;;2.23;1.17;;;17.50;64.40;;;;;;10401250;28;20577;-65
2022/01/14 06:28:57;;;;;;;2.40;1.43;;;17.50;64.30;;;;;;10402526;28;20194;-66
2022/01/14 06:34:19;;;;;;;2.70;1.47;;;17.50;64.40;;;;;;10413821;28;20728;-66
2022/01/14 06:39:43;;;;;;;2.17;1.20;;;17.50;64.40;;;;;;10413111;28;20198;-65
2022/01/14 06:45:06;;;;;;;2.20;1.23;;;17.50;64.50;;;;;;10402813;28;20218;-66
2022/01/14 06:50:29;;;;;;;1.77;1.10;;;17.50;64.50;;;;;;10412265;28;20198;-65
2022/01/14 06:55:52;;;;;;;2.43;1.17;;;17.50;64.60;;;;;;10397168;28;20229;-66
2022/01/14 07:01:14;;;;;;;2.30;1.00;;;17.50;64.60;;;;;;10373981;28;20559;-66
2022/01/14 07:06:36;;;;;;;1.88;1.38;;;17.50;64.70;;;;;;10380607;28;20443;-65
2022/01/14 07:12:01;;;;;;;2.47;1.27;;;18.50;61.60;;;;;;10387720;28;20202;-65
2022/01/14 07:17:24;;;;;;;2.03;1.00;;;17.90;63.20;;;;;;10410702;28;20352;-65
2022/01/14 07:22:47;;;;;;;2.63;1.40;;;17.70;63.80;;;;;;10407501;28;20761;-65
2022/01/14 07:28:11;;;;;;;1.93;1.10;;;17.60;64.10;;;;;;10409802;28;20699;-66
2022/01/14 07:33:33;;;;;;;1.77;1.20;;;17.60;64.30;;;;;;10387959;28;20255;-66
2022/01/14 07:38:55;;;;;;;1.93;1.20;;;17.50;64.30;;;;;;10404584;28;20664;-65
2022/01/14 07:44:19;;;;;;;2.70;1.20;;;17.50;64.30;;;;;;10404931;28;20574;-65
2022/01/14 07:49:41;;;;;;;2.73;1.00;;;17.50;64.40;;;;;;10395970;28;20577;-65
2022/01/14 07:55:04;;;;;;;1.33;1.10;;;17.50;64.40;;;;;;10409467;28;20225;-65
2022/01/14 08:00:28;;;;;;;1.87;1.13;;;17.50;64.40;;;;;;10409485;28;20202;-65
2022/01/14 08:05:53;;;;;;;2.57;1.30;;;17.50;64.40;;;;;;10409847;28;20287;-65
2022/01/14 08:11:15;;;;;;;2.57;1.13;;;17.50;64.50;;;;;;10409174;28;20197;-65
2022/01/14 08:16:39;;;;;;;1.80;1.13;;;17.50;64.50;;;;;;10409476;28;20218;-65
2022/01/14 08:22:02;;;;;;;2.73;1.10;;;17.50;64.50;;;;;;10396344;28;20268;-65
2022/01/14 08:27:26;;;;;;;1.97;1.10;;;17.50;64.50;;;;;;10405110;28;20225;-65
2022/01/14 08:32:50;;;;;;;1.40;0.97;;;17.50;64.50;;;;;;10408450;28;20194;-65
2022/01/14 08:38:12;;;;;;;1.93;1.03;;;17.50;64.80;;;;;;10395397;28;20356;-66
2022/01/14 08:43:34;;;;;;;1.93;1.23;;;17.50;64.90;;;;;;10412064;28;20696;-66
2022/01/14 08:49:00;;;;;;;3.00;0.70;;;17.50;64.90;;;;;;10406618;28;20672;-65
2022/01/14 08:54:22;;;;;;;1.40;0.90;;;17.50;65.00;;;;;;10407940;28;20221;-65
2022/01/14 08:59:44;;;;;;;2.13;0.90;;;17.50;64.80;;;;;;10407262;28;20668;-65
2022/01/14 09:05:10;;;;;;;3.97;1.40;;;17.50;64.70;;;;;;10399274;28;20229;-64
2022/01/14 09:10:33;;;;;;;1.70;1.10;;;17.50;64.70;;;;;;10410614;28;20248;-65
2022/01/14 09:15:56;;;;;;;2.03;1.03;;;17.50;64.70;;;;;;10415227;28;20229;-64
2022/01/14 09:21:19;;;;;;;3.60;1.20;;;17.50;64.70;;;;;;10414472;28;20201;-65
2022/01/14 09:26:41;;;;;;;2.47;1.03;;;17.50;64.80;;;;;;10414525;28;20225;-64
2022/01/14 09:32:05;;;;;;;3.13;1.00;;;17.50;64.90;;;;;;10405298;28;20198;-64
2022/01/14 09:37:29;;;;;;;2.83;1.30;;;17.50;64.90;;;;;;10414608;28;20300;-65
2022/01/14 09:42:53;;;;;;;1.53;1.00;;;17.50;64.90;;;;;;10414031;28;20573;-66
2022/01/14 09:48:16;;;;;;;2.03;1.10;;;17.50;65.00;;;;;;10414364;28;20587;-65
2022/01/14 09:53:40;;;;;;;1.60;1.40;;;17.50;65.20;;;;;;10414199;28;20197;-65
2022/01/14 09:59:03;;;;;;;2.33;1.10;;;17.50;64.90;;;;;;10486100;22;20234;-68
2022/01/14 10:04:25;;;;;;;3.50;1.00;;;17.50;64.80;;;;;;10495617;28;20227;-68
2022/01/14 10:09:55;;;;;;;2.07;1.20;;;17.50;64.90;;;;;;10471320;28;20208;-69
2022/01/14 10:15:17;;;;;;;2.80;1.10;;;17.50;65.00;;;;;;10481131;27;20228;-68
2022/01/14 10:20:40;;;;;;;2.13;1.00;;;17.50;65.10;;;;;;10475110;28;20196;-68
2022/01/14 10:26:04;;;;;;;2.40;0.90;;;17.50;65.10;;;;;;10487550;28;20213;-68
2022/01/14 10:31:33;;;;;;;2.60;1.07;;;17.50;65.10;;;;;;10465312;28;20277;-68
2022/01/14 10:37:11;;;;;;;2.60;1.17;;;17.50;65.70;;;;;;10493463;28;20208;-68
2022/01/14 10:42:35;;;;;;;2.43;1.10;;;17.50;64.90;;;;;;10495128;28;20188;-68
2022/01/14 10:48:00;;;;;;;2.63;1.43;;;17.50;65.20;;;;;;10492198;28;20224;-68
2022/01/14 10:53:24;;;;;;;2.20;1.20;;;17.50;65.10;;;;;;10493156;28;20196;-68
2022/01/14 10:58:48;;;;;;;4.70;1.30;;;17.50;65.20;;;;;;10474741;28;20212;-68
2022/01/14 11:04:14;;;;;;;2.47;1.10;;;17.50;65.10;;;;;;10455073;28;20220;-68
2022/01/14 11:09:36;;;;;;;2.47;0.90;;;17.50;65.10;;;;;;10457056;28;20197;-68
2022/01/14 11:15:00;;;;;;;1.93;1.07;;;17.50;65.10;;;;;;10454299;28;20213;-69
2022/01/14 11:20:28;;;;;;;2.17;1.10;;;17.50;65.10;;;;;;10473982;28;20275;-68
2022/01/14 11:25:58;;;;;;;3.60;1.33;;;17.50;65.20;;;;;;10461586;28;20303;-67
2022/01/14 11:31:30;;;;;;;3.67;1.40;;;17.50;65.10;;;;;;10468626;28;20666;-67
2022/01/14 11:36:53;;;;;;;1.63;1.13;;;17.50;65.00;;;;;;10483963;28;20709;-67
2022/01/14 11:42:17;;;;;;;2.17;1.23;;;17.50;65.20;;;;;;10466568;28;20589;-68
2022/01/14 11:48:01;;;;;;;1.63;1.00;;;17.50;65.20;;;;;;10457773;28;20607;-68
2022/01/14 11:53:42;;;;;;;2.13;1.07;;;17.50;65.00;;;;;;10463898;28;20684;-69
2022/01/14 11:59:43;;;;;;;2.00;1.20;;;17.50;65.10;;;;;;10482485;28;20207;-68
2022/01/14 12:05:20;;;;;;;2.67;1.30;;;17.50;64.90;;;;;;10488734;28;20230;-69
2022/01/14 12:10:44;;;;;;;2.93;1.30;;;17.50;65.20;;;;;;10485531;28;20189;-69
2022/01/14 12:16:09;;;;;;;2.27;1.30;;;17.50;65.20;;;;;;10467529;28;20220;-68
2022/01/14 12:21:58;;;;;;;1.53;1.07;;;17.50;65.20;;;;;;10466872;28;20283;-67
2022/01/14 12:27:26;;;;;;;4.60;1.40;;;17.50;65.20;;;;;;10469272;28;20578;-68
2022/01/14 12:32:53;;;;;;;3.63;1.43;;;17.50;65.40;;;;;;10487370;28;20618;-69
2022/01/14 12:38:20;;;;;;;3.93;1.53;;;17.50;65.50;;;;;;10480156;28;20211;-69
2022/01/14 12:43:48;;;;;;;2.73;1.53;;;17.60;65.50;;;;;;10480672;28;20783;-66
2022/01/14 12:49:16;;;;;;;4.10;1.80;;;17.60;65.40;;;;;;10492782;28;20205;-65
2022/01/14 12:54:42;;;;;;;3.70;1.90;;;17.60;65.40;;;;;;10484560;28;20219;-65
2022/01/14 13:00:06;;;;;;;5.03;2.47;;;17.60;65.60;;;;;;10494572;28;20196;-64
2022/01/14 13:05:30;;;;;;;5.90;2.23;;;17.60;65.70;;;;;;10483943;28;20228;-67
2022/01/14 13:11:03;;;;;;;7.00;1.80;;;17.60;66.40;;;;;;10458883;28;20201;-67
2022/01/14 13:16:25;;;;;;;4.00;2.00;;;17.60;65.70;;;;;;10481839;28;20214;-66
2022/01/14 13:21:47;;;;;;;4.40;2.03;;;17.60;65.90;;;;;;10478480;28;20204;-66
2022/01/14 13:27:13;;;;;;;4.73;2.00;;;17.60;65.90;;;;;;10488828;28;20235;-67
2022/01/14 13:32:37;;;;;;;5.93;2.58;;;17.60;65.90;;;;;;10466186;28;20437;-67
2022/01/14 13:38:01;;;;;;;4.80;2.00;;;17.70;65.80;;;;;;10472073;28;20213;-68
2022/01/14 13:43:30;;;;;;;4.13;1.80;;;17.70;65.80;;;;;;10486256;28;20203;-69
2022/01/14 13:48:52;;;;;;;4.07;1.90;;;17.70;65.80;;;;;;10494081;28;20228;-68
2022/01/14 13:54:17;;;;;;;5.90;2.00;;;17.70;65.80;;;;;;10494187;28;20222;-67
2022/01/14 13:59:41;;;;;;;5.50;2.20;;;17.60;65.90;;;;;;10493422;28;20208;-68
2022/01/14 14:05:03;;;;;;;3.50;1.87;;;17.60;65.90;;;;;;10481049;28;20323;-69
2022/01/14 14:10:47;;;;;;;4.17;1.87;;;17.60;66.00;;;;;;10488186;28;20201;-69
2022/01/14 14:16:27;;;;;;;5.93;2.30;;;17.60;66.20;;;;;;10482985;28;20247;-68
2022/01/14 14:22:08;;;;;;;4.87;2.43;;;17.50;65.80;;;;;;10483758;28;20207;-68
2022/01/14 14:27:31;;;;;;;2.87;1.67;;;17.60;65.90;;;;;;10473942;28;20733;-68
2022/01/14 14:32:56;;;;;;;4.63;1.87;;;17.50;66.20;;;;;;10484187;28;20199;-69
2022/01/14 14:38:19;;;;;;;3.37;2.00;;;17.50;66.20;;;;;;10485722;28;20239;-68
2022/01/14 14:43:41;;;;;;;3.33;2.03;;;17.50;66.20;;;;;;10491836;28;20212;-68
2022/01/14 14:49:06;;;;;;;4.13;1.90;;;17.50;66.20;;;;;;10470672;28;20218;-68
2022/01/14 14:54:28;;;;;;;3.30;1.77;;;17.50;66.20;;;;;;10484331;28;20217;-68
2022/01/14 14:59:50;;;;;;;3.10;2.00;;;17.50;66.20;;;;;;10456772;28;20209;-68
2022/01/14 15:05:15;;;;;;;2.30;1.70;;;17.50;66.30;;;;;;10461301;28;20231;-68
2022/01/14 15:10:37;;;;;;;4.13;1.83;;;17.50;66.30;;;;;;10488005;28;20574;-68
2022/01/14 15:16:24;;;;;;;2.83;1.83;;;17.50;66.40;;;;;;10485557;28;20244;-68
2022/01/14 15:21:48;;;;;;;4.17;1.93;;;17.50;66.40;;;;;;10476752;28;20649;-68
2022/01/14 15:27:10;;;;;;;2.40;1.47;;;17.50;66.40;;;;;;10487849;28;20247;-68
2022/01/14 15:32:32;;;;;;;3.30;1.70;;;17.50;66.30;;;;;;10480790;28;20188;-69
2022/01/14 15:38:01;;;;;;;2.27;1.47;;;17.50;66.40;;;;;;10479020;28;20218;-69
2022/01/14 15:43:24;;;;;;;3.63;1.70;;;17.50;66.40;;;;;;10482377;28;20674;-68
2022/01/14 15:48:46;;;;;;;3.20;1.83;;;17.50;66.40;;;;;;10489222;28;20226;-68
2022/01/14 15:54:10;;;;;;;2.53;1.60;;;17.50;66.40;;;;;;10488374;28;20216;-68
2022/01/14 15:59:32;;;;;;;3.90;1.50;;;17.50;66.40;;;;;;10487301;28;20209;-68
2022/01/14 16:04:55;;;;;;;2.67;1.60;;;17.50;66.50;;;;;;10484037;28;20220;-68
2022/01/14 16:10:18;;;;;;;1.97;1.20;;;17.50;66.60;;;;;;10490327;28;20201;-68
2022/01/14 16:15:40;;;;;;;3.80;1.63;;;17.50;66.60;;;;;;10480964;28;20216;-69
2022/01/14 16:21:04;;;;;;;2.27;1.33;;;17.50;66.70;;;;;;10481059;28;20334;-68
2022/01/14 16:26:28;;;;;;;3.77;1.47;;;17.60;66.80;;;;;;10499338;28;20227;-68
2022/01/14 16:31:50;;;;;;;2.07;1.40;;;17.60;66.90;;;;;;10477371;28;20200;-68
2022/01/14 16:37:13;;;;;;;2.57;1.50;;;17.50;66.80;;;;;;10492042;28;20216;-69
2022/01/14 16:42:39;;;;;;;1.67;1.27;;;17.60;66.80;;;;;;10497458;28;20208;-68
2022/01/14 16:48:01;;;;;;;2.97;1.50;;;17.60;66.70;;;;;;10495514;28;20523;-67
2022/01/14 16:53:29;;;;;;;1.53;1.27;;;17.50;66.60;;;;;;10477547;28;20207;-68
2022/01/14 16:58:53;;;;;;;3.53;1.47;;;17.60;66.70;;;;;;10498416;28;20485;-68
2022/01/14 17:04:15;;;;;;;2.50;1.50;;;17.50;66.60;;;;;;10497447;28;20224;-68
2022/01/14 17:09:38;;;;;;;3.60;1.30;;;17.50;66.60;;;;;;10495566;28;20573;-69
2022/01/14 17:15:02;;;;;;;2.03;1.40;;;17.50;66.60;;;;;;10492057;28;20223;-67
2022/01/14 17:20:24;;;;;;;1.63;1.07;;;17.50;66.60;;;;;;10495199;28;20200;-67
2022/01/14 17:25:47;;;;;;;4.03;1.50;;;17.50;66.60;;;;;;10496344;28;20716;-67
2022/01/14 17:31:11;;;;;;;2.10;1.40;;;17.50;66.60;;;;;;10497347;28;20206;-67
2022/01/14 17:36:34;;;;;;;2.43;1.30;;;17.60;66.60;;;;;;10475592;28;20217;-68
2022/01/14 17:41:58;;;;;;;2.50;1.60;;;17.50;66.50;;;;;;10473134;28;20659;-67
2022/01/14 17:47:22;;;;;;;2.40;1.57;;;17.50;66.50;;;;;;10486209;28;20216;-67
2022/01/14 17:52:44;;;;;;;3.23;1.20;;;17.60;66.80;;;;;;10496934;28;20196;-67
2022/01/14 17:58:06;;;;;;;2.90;1.30;;;17.60;66.80;;;;;;10496168;28;20224;-67
2022/01/14 18:03:29;;;;;;;2.67;1.40;;;17.60;66.80;;;;;;10496422;28;20192;-67
2022/01/14 18:08:52;;;;;;;2.30;1.10;;;17.60;66.70;;;;;;10494047;28;20216;-69
2022/01/14 18:14:21;;;;;;;1.33;1.00;;;17.60;66.60;;;;;;10492357;28;20212;-69
2022/01/14 18:19:45;;;;;;;2.30;1.33;;;17.60;66.60;;;;;;10487127;28;20197;-66
2022/01/14 18:25:08;;;;;;;2.40;1.20;;;17.70;66.50;;;;;;10473061;28;20594;-68
2022/01/14 18:30:30;;;;;;;2.03;1.23;;;17.60;66.40;;;;;;10487246;28;20196;-67
2022/01/14 18:35:54;;;;;;;3.47;1.37;;;17.70;66.50;;;;;;10482903;28;20242;-66
2022/01/14 18:41:17;;;;;;;2.10;1.37;;;17.60;66.40;;;;;;10490469;28;20204;-67
2022/01/14 18:46:39;;;;;;;2.07;1.23;;;17.60;66.40;;;;;;10483631;28;20224;-67
2022/01/14 18:52:04;;;;;;;1.97;1.33;;;17.70;66.40;;;;;;10476675;28;20422;-65
2022/01/14 18:57:26;;;;;;;1.98;1.30;;;18.70;62.70;;;;;;10482082;28;20804;-69
2022/01/14 19:02:49;;;;;;;2.83;1.13;;;18.50;63.20;;;;;;10469725;28;20201;-68
2022/01/14 19:08:12;;;;;;;2.37;1.30;;;18.00;64.80;;;;;;10473529;28;20242;-67
2022/01/14 19:13:36;;;;;;;1.67;1.00;;;17.80;65.50;;;;;;10486773;28;20200;-66
2022/01/14 19:18:58;;;;;;;1.50;0.97;;;17.80;65.80;;;;;;10475060;28;20200;-66
2022/01/14 19:24:23;;;;;;;2.60;1.10;;;17.70;66.00;;;;;;10457978;28;20225;-66
2022/01/14 19:29:45;;;;;;;1.80;1.00;;;17.70;66.00;;;;;;10500300;28;20226;-67
2022/01/14 19:35:08;;;;;;;3.53;1.30;;;17.70;66.10;;;;;;10501199;28;20223;-67
2022/01/14 19:40:32;;;;;;;2.63;1.20;;;17.70;66.10;;;;;;10476677;28;20695;-67
2022/01/14 19:45:54;;;;;;;2.87;1.30;;;17.70;66.10;;;;;;10484258;28;20697;-66
2022/01/14 19:51:17;;;;;;;2.90;1.60;;;17.60;66.10;;;;;;10489090;28;20193;-67
2022/01/14 19:56:41;;;;;;;2.90;1.20;;;17.70;66.10;;;;;;10488142;28;20229;-66
2022/01/14 20:02:04;;;;;;;1.93;0.90;;;17.60;66.10;;;;;;10488302;28;20200;-69
2022/01/14 20:07:28;;;;;;;1.77;0.87;;;17.60;66.10;;;;;;10491007;28;20227;-67
2022/01/14 20:12:51;;;;;;;2.73;1.13;;;17.70;66.10;;;;;;10490466;28;20566;-69
2022/01/14 20:18:13;;;;;;;1.47;0.93;;;17.60;66.10;;;;;;10487097;28;20295;-66
2022/01/14 20:23:36;;;;;;;2.87;1.00;;;17.70;66.10;;;;;;10490614;28;20201;-67
2022/01/14 20:29:00;;;;;;;1.27;0.90;;;17.70;66.10;;;;;;10488883;28;20223;-66
2022/01/14 20:34:22;;;;;;;2.87;1.40;;;17.70;66.10;;;;;;10479804;28;20227;-66
2022/01/14 20:39:44;;;;;;;1.50;1.20;;;17.60;66.00;;;;;;10467161;28;20562;-67
2022/01/14 20:45:14;;;;;;;2.43;1.23;;;17.60;66.00;;;;;;10471650;28;20213;-66
2022/01/14 20:50:39;;;;;;;2.90;1.40;;;17.60;66.00;;;;;;10484043;28;20244;-67
2022/01/14 20:56:01;;;;;;;1.73;1.20;;;17.60;66.00;;;;;;10466906;28;20283;-66
2022/01/14 21:01:25;;;;;;;4.67;1.40;;;17.70;66.00;;;;;;10464298;28;20287;-66
2022/01/14 21:06:47;;;;;;;2.80;1.37;;;17.70;66.00;;;;;;10479253;28;20230;-66
2022/01/14 21:12:10;;;;;;;3.37;1.30;;;17.70;65.90;;;;;;10495684;28;20188;-66
2022/01/14 21:17:36;;;;;;;2.23;1.57;;;17.70;65.90;;;;;;10494841;28;20212;-67
2022/01/14 21:22:58;;;;;;;2.63;1.50;;;17.60;65.90;;;;;;10484307;28;20203;-66
2022/01/14 21:28:21;;;;;;;1.97;1.20;;;17.60;65.90;;;;;;10491846;28;20282;-66
2022/01/14 21:33:44;;;;;;;2.07;1.27;;;17.60;65.80;;;;;;10471308;28;20550;-66
2022/01/14 21:39:06;;;;;;;2.43;1.23;;;17.70;65.80;;;;;;10473365;28;20212;-67
2022/01/14 21:44:28;;;;;;;2.10;1.40;;;17.60;66.40;;;;;;10478965;28;20224;-68
2022/01/14 21:49:52;;;;;;;3.43;1.70;;;17.60;65.80;;;;;;10482176;28;20605;-69
2022/01/14 21:55:16;;;;;;;3.37;1.10;;;17.60;65.80;;;;;;10467506;28;20212;-67
2022/01/14 22:00:38;;;;;;;3.07;1.50;;;17.60;65.80;;;;;;10470739;28;20194;-67
2022/01/14 22:06:01;;;;;;;2.77;1.40;;;17.60;65.80;;;;;;10470111;28;20314;-67
2022/01/14 22:11:24;;;;;;;2.97;1.43;;;17.60;65.90;;;;;;10478482;28;20698;-68
2022/01/14 22:16:46;;;;;;;2.37;1.53;;;17.60;65.80;;;;;;10480520;28;20216;-66
2022/01/14 22:22:09;;;;;;;2.83;1.40;;;17.60;65.80;;;;;;10479252;28;20196;-66
2022/01/14 22:27:32;;;;;;;3.50;1.27;;;17.60;65.80;;;;;;10492522;28;20701;-66
2022/01/14 22:32:54;;;;;;;3.70;1.73;;;17.60;65.80;;;;;;10493861;28;20192;-66
2022/01/14 22:38:18;;;;;;;2.37;1.20;;;17.60;65.80;;;;;;10491955;28;20216;-66
2022/01/14 22:43:40;;;;;;;2.50;1.50;;;17.60;65.80;;;;;;10495811;28;20200;-67
2022/01/14 22:49:02;;;;;;;1.90;1.20;;;17.60;65.80;;;;;;10491564;28;20220;-67
2022/01/14 22:54:26;;;;;;;3.80;1.67;;;17.60;65.80;;;;;;10485955;28;20551;-66
2022/01/14 22:59:48;;;;;;;2.07;1.10;;;17.60;65.70;;;;;;10469172;28;20208;-66
2022/01/14 23:05:13;;;;;;;3.47;1.73;;;17.60;65.70;;;;;;10489428;28;20216;-66
2022/01/14 23:10:37;;;;;;;1.67;1.20;;;17.60;65.70;;;;;;10493069;28;20216;-66
2022/01/14 23:15:59;;;;;;;1.87;1.30;;;17.60;65.80;;;;;;10491181;28;20219;-68
2022/01/14 23:21:22;;;;;;;1.93;1.33;;;17.50;65.70;;;;;;10492949;28;20227;-66
2022/01/14 23:26:45;;;;;;;1.90;1.40;;;17.60;65.70;;;;;;10478776;28;20713;-67
2022/01/14 23:32:08;;;;;;;1.97;1.30;;;17.60;65.70;;;;;;10489281;28;20756;-67
2022/01/14 23:37:30;;;;;;;2.33;1.30;;;17.60;65.60;;;;;;10492203;28;20216;-68
2022/01/14 23:43:00;;;;;;;1.93;1.20;;;17.60;65.60;;;;;;10478537;28;20655;-69
2022/01/14 23:48:24;;;;;;;3.27;1.60;;;17.60;65.70;;;;;;10490814;28;20220;-67
2022/01/14 23:53:46;;;;;;;1.70;1.00;;;17.60;65.60;;;;;;10491134;28;20196;-66
2022/01/14 23:59:10;;;;;;;1.70;1.30;;;17.60;65.60;;;;;;10491591;28;20208;-66
